createdAt,value
2022-11-27T00:03:31.597Z,84.29
2022-11-27T00:08:41.114Z,84.31
2022-11-27T00:13:51.657Z,84.28
2022-11-27T00:19:01.479Z,84.22
2022-11-27T00:24:12.397Z,84.17
2022-11-27T00:29:21.718Z,84.22
2022-11-27T00:34:31.548Z,84.29
2022-11-27T00:39:41.131Z,84.26
2022-11-27T00:44:50.529Z,84.18
2022-11-27T00:50:00.126Z,84.20
2022-11-27T00:55:11.707Z,84.26
2022-11-27T01:00:23.670Z,84.32
2022-11-27T01:05:33.224Z,84.36
2022-11-27T01:10:54.437Z,84.35
2022-11-27T01:16:07.151Z,84.37
2022-11-27T01:21:19.283Z,84.50
2022-11-27T01:26:29.234Z,84.67
2022-11-27T01:31:39.884Z,84.69
2022-11-27T01:36:49.634Z,84.72
2022-11-27T01:41:58.943Z,84.81
2022-11-27T01:47:15.985Z,84.93
2022-11-27T01:52:30.348Z,84.89
2022-11-27T01:57:45.814Z,84.89
2022-11-27T02:02:55.443Z,84.89
2022-11-27T02:08:09.964Z,84.89
2022-11-27T02:13:30.609Z,84.96
2022-11-27T02:18:50.293Z,84.97
2022-11-27T02:24:23.607Z,84.94
2022-11-27T02:29:35.630Z,84.82
2022-11-27T02:34:53.477Z,84.92
2022-11-27T02:40:11.741Z,84.96
2022-11-27T02:45:27.849Z,85.11
2022-11-27T02:50:41.693Z,85.03
2022-11-27T02:55:54.368Z,85.04
2022-11-27T03:01:07.277Z,85.04
2022-11-27T03:06:23.123Z,85.12
2022-11-27T03:11:33.035Z,85.14
2022-11-27T03:16:52.659Z,85.29
2022-11-27T03:22:04.811Z,85.51
2022-11-27T03:27:20.817Z,85.61
2022-11-27T03:32:32.458Z,85.61
2022-11-27T03:37:42.642Z,85.59
2022-11-27T03:43:05.185Z,85.68
2022-11-27T03:48:31.029Z,85.60
2022-11-27T03:53:53.822Z,85.51
2022-11-27T03:59:10.136Z,85.58
2022-11-27T04:04:20.280Z,85.78
2022-11-27T04:09:29.878Z,85.86
2022-11-27T04:14:39.699Z,85.89
2022-11-27T04:19:49.337Z,85.97
2022-11-27T04:24:58.957Z,85.89
2022-11-27T04:30:11.134Z,85.89
2022-11-27T04:35:20.770Z,85.87
2022-11-27T04:40:30.189Z,85.99
2022-11-27T04:45:40.020Z,86.12
2022-11-27T04:50:49.646Z,86.18
2022-11-27T04:55:59.059Z,86.18
2022-11-27T05:01:09.162Z,86.21
2022-11-27T05:06:18.961Z,86.29
2022-11-27T05:11:28.682Z,86.20
2022-11-27T05:16:38.279Z,86.18
2022-11-27T05:21:49.119Z,86.25
2022-11-27T05:26:59.342Z,86.27
2022-11-27T05:32:09.288Z,86.24
2022-11-27T05:37:20.033Z,86.24
2022-11-27T05:42:29.792Z,86.25
2022-11-27T05:47:39.291Z,86.11
2022-11-27T05:52:48.721Z,86.01
2022-11-27T05:57:58.672Z,85.93
2022-11-27T06:03:08.314Z,85.89
2022-11-27T06:08:17.798Z,85.93
2022-11-27T06:13:27.321Z,86.07
2022-11-27T06:18:37.051Z,86.13
2022-11-27T06:23:47.306Z,86.13
2022-11-27T06:28:57.941Z,86.14
2022-11-27T06:34:08.402Z,86.04
2022-11-27T06:39:18.079Z,86.04
2022-11-27T06:44:27.721Z,86.06
2022-11-27T06:49:37.978Z,85.87
2022-11-27T06:54:47.637Z,86.00
2022-11-27T06:59:57.525Z,86.04
2022-11-27T07:05:07.781Z,85.94
2022-11-27T07:10:17.724Z,85.97
2022-11-27T07:15:27.359Z,86.00
2022-11-27T07:20:37.271Z,86.12
2022-11-27T07:25:47.133Z,86.05
2022-11-27T07:31:01.197Z,85.96
2022-11-27T07:36:17.237Z,85.99
2022-11-27T07:41:33.538Z,85.83
2022-11-27T07:46:43.968Z,85.92
2022-11-27T07:51:53.454Z,85.86
2022-11-27T07:57:02.916Z,85.68
2022-11-27T08:02:16.048Z,85.65
2022-11-27T08:07:30.247Z,85.85
2022-11-27T08:12:39.992Z,85.92
2022-11-27T08:17:49.417Z,86.00
2022-11-27T08:23:02.780Z,86.11
2022-11-27T08:28:12.953Z,86.13
2022-11-27T08:33:22.509Z,86.10
2022-11-27T08:38:32.190Z,85.97
2022-11-27T08:43:41.801Z,85.89
2022-11-27T08:48:51.308Z,85.75
2022-11-27T08:54:00.878Z,85.63
2022-11-27T08:59:10.539Z,85.69
2022-11-27T09:04:20.135Z,85.64
2022-11-27T09:09:29.875Z,85.62
2022-11-27T09:14:39.895Z,85.61
2022-11-27T09:19:49.763Z,85.53
2022-11-27T09:24:59.169Z,85.46
2022-11-27T09:30:11.960Z,85.44
2022-11-27T09:35:22.102Z,85.25
2022-11-27T09:40:32.062Z,85.22
2022-11-27T09:45:50.417Z,85.29
2022-11-27T09:51:03.392Z,85.19
2022-11-27T09:56:20.400Z,85.08
2022-11-27T10:01:42.948Z,85.07
2022-11-27T10:07:22.573Z,84.96
2022-11-27T10:12:53.016Z,84.97
2022-11-27T10:18:13.393Z,84.98
2022-11-27T10:23:41.930Z,85.06
2022-11-27T10:29:03.795Z,85.13
2022-11-27T10:34:32.442Z,85.12
2022-11-27T10:39:47.745Z,85.29
2022-11-27T10:45:03.535Z,85.36
2022-11-27T10:50:20.675Z,85.38
2022-11-27T10:55:57.357Z,85.43
2022-11-27T11:01:10.197Z,85.43
2022-11-27T11:06:24.859Z,85.27
2022-11-27T11:11:34.590Z,85.46
2022-11-27T11:16:48.822Z,85.50
2022-11-27T11:22:00.065Z,85.49
2022-11-27T11:27:16.585Z,85.59
2022-11-27T11:32:32.221Z,85.60
2022-11-27T11:37:48.240Z,85.54
2022-11-27T11:43:00.517Z,85.63
2022-11-27T11:48:28.228Z,85.69
2022-11-27T11:53:41.625Z,85.63
2022-11-27T11:59:02.098Z,85.71
2022-11-27T12:04:39.971Z,85.71
2022-11-27T12:10:05.600Z,85.67
2022-11-27T12:15:26.819Z,85.63
2022-11-27T12:20:56.205Z,85.46
2022-11-27T12:26:18.464Z,85.54
2022-11-27T12:31:50.233Z,85.50
2022-11-27T12:37:24.339Z,85.52
2022-11-27T12:42:45.302Z,85.61
2022-11-27T12:48:02.259Z,85.68
2022-11-27T12:53:24.933Z,85.71
2022-11-27T12:58:39.689Z,85.60
2022-11-27T13:04:06.642Z,85.58
2022-11-27T13:09:27.695Z,85.58
2022-11-27T13:14:44.902Z,85.67
2022-11-27T13:19:57.113Z,85.57
2022-11-27T13:25:07.935Z,85.65
2022-11-27T13:30:26.688Z,85.75
2022-11-27T13:35:43.667Z,85.76
2022-11-27T13:40:57.693Z,85.72
2022-11-27T13:46:12.212Z,85.74
2022-11-27T13:51:32.159Z,85.82
2022-11-27T13:56:42.240Z,85.79
2022-11-27T14:02:05.385Z,85.77
2022-11-27T14:07:16.550Z,85.69
2022-11-27T14:12:31.308Z,85.64
2022-11-27T14:17:44.765Z,85.54
2022-11-27T14:23:13.710Z,85.59
2022-11-27T14:28:27.317Z,85.84
2022-11-27T14:34:07.505Z,85.97
2022-11-27T14:39:29.532Z,86.03
2022-11-27T14:44:39.495Z,85.98
2022-11-27T14:49:56.091Z,85.99
2022-11-27T14:55:07.088Z,85.98
2022-11-27T15:00:29.064Z,85.89
2022-11-27T15:05:40.507Z,85.81
2022-11-27T15:10:51.040Z,85.75
2022-11-27T15:16:15.746Z,85.80
2022-11-27T15:21:27.562Z,85.87
2022-11-27T15:26:41.185Z,85.97
2022-11-27T15:31:56.893Z,85.96
2022-11-27T15:37:20.016Z,86.14
2022-11-27T15:42:30.497Z,86.21
2022-11-27T15:47:41.812Z,86.19
2022-11-27T15:52:51.461Z,86.24
2022-11-27T15:58:00.894Z,86.14
2022-11-27T16:03:10.735Z,86.18
2022-11-27T16:08:20.473Z,86.19
2022-11-27T16:13:30.275Z,86.13
2022-11-27T16:18:40.113Z,86.35
2022-11-27T16:23:49.966Z,86.40
2022-11-27T16:29:00.089Z,86.32
2022-11-27T16:34:09.837Z,86.42
2022-11-27T16:39:19.914Z,86.29
2022-11-27T16:44:29.604Z,86.26
2022-11-27T16:49:39.158Z,86.39
2022-11-27T16:54:48.609Z,86.46
2022-11-27T16:59:58.674Z,86.46
2022-11-27T17:05:09.319Z,86.50
2022-11-27T17:10:19.249Z,86.39
2022-11-27T17:15:28.783Z,86.36
2022-11-27T17:20:38.424Z,86.38
2022-11-27T17:25:47.769Z,86.42
2022-11-27T17:30:57.302Z,86.39
2022-11-27T17:36:07.809Z,86.35
2022-11-27T17:41:18.289Z,86.21
2022-11-27T17:46:30.720Z,86.24
2022-11-27T17:51:41.503Z,86.31
2022-11-27T17:56:51.771Z,86.43
2022-11-27T18:02:01.311Z,86.32
2022-11-27T18:07:11.168Z,86.24
2022-11-27T18:12:21.298Z,86.14
2022-11-27T18:17:30.919Z,86.08
2022-11-27T18:22:40.315Z,86.14
2022-11-27T18:27:49.741Z,86.17
2022-11-27T18:32:59.422Z,86.13
2022-11-27T18:38:09.053Z,86.19
2022-11-27T18:43:18.725Z,86.35
2022-11-27T18:48:28.685Z,86.45
2022-11-27T18:53:39.525Z,86.50
2022-11-27T18:58:50.003Z,86.36
2022-11-27T19:04:03.047Z,86.48
2022-11-27T19:09:13.511Z,86.30
2022-11-27T19:14:23.166Z,86.29
2022-11-27T19:25:03.037Z,86.14
2022-11-27T19:30:15.289Z,86.15
2022-11-27T19:35:26.810Z,86.32
2022-11-27T19:40:38.985Z,86.11
2022-11-27T19:45:48.841Z,86.17
2022-11-27T19:51:04.140Z,86.26
2022-11-27T19:56:15.114Z,86.03
2022-11-27T20:01:25.084Z,85.86
2022-11-27T20:06:35.148Z,85.71
2022-11-27T20:11:44.531Z,85.83
2022-11-27T20:16:54.102Z,85.93
2022-11-27T20:22:04.006Z,85.93
2022-11-27T20:27:13.707Z,86.11
2022-11-27T20:32:23.757Z,86.18
2022-11-27T20:37:34.199Z,86.06
2022-11-27T20:42:44.053Z,86.07
2022-11-27T20:47:53.824Z,86.06
2022-11-27T20:53:03.288Z,85.88
2022-11-27T20:58:12.840Z,85.89
2022-11-27T21:03:22.469Z,85.76
2022-11-27T21:08:32.321Z,85.75
2022-11-27T21:13:42.420Z,85.94
2022-11-27T21:18:55.285Z,85.96
2022-11-27T21:24:05.609Z,85.90
2022-11-27T21:29:16.485Z,85.96
2022-11-27T21:34:26.577Z,85.79
2022-11-27T21:39:36.142Z,85.66
2022-11-27T21:44:45.678Z,85.85
2022-11-27T21:49:56.359Z,85.93
2022-11-27T21:55:11.671Z,85.96
2022-11-27T22:00:23.716Z,86.07
2022-11-27T22:05:33.367Z,85.96
2022-11-27T22:10:46.459Z,85.93
2022-11-27T22:15:56.336Z,85.81
2022-11-27T22:21:10.931Z,85.86
2022-11-27T22:26:22.386Z,85.83
2022-11-27T22:31:34.318Z,85.94
2022-11-27T22:36:43.933Z,85.90
2022-11-27T22:41:53.426Z,85.96
2022-11-27T22:47:02.997Z,85.69
2022-11-27T22:52:12.637Z,85.71
2022-11-27T22:57:22.161Z,85.67
2022-11-27T23:02:32.160Z,85.78
2022-11-27T23:07:41.732Z,85.78
2022-11-27T23:12:51.524Z,85.60
2022-11-27T23:18:01.031Z,85.43
2022-11-27T23:23:10.728Z,85.46
2022-11-27T23:28:20.379Z,85.38
2022-11-27T23:33:30.003Z,85.47
2022-11-27T23:38:41.194Z,85.60
2022-11-27T23:43:51.624Z,85.58
2022-11-27T23:49:02.851Z,85.33
2022-11-27T23:54:15.253Z,85.39
2022-11-27T23:59:25.337Z,85.44
